createdAt,value
2019-02-14T00:01:54.126Z,8.60
2019-02-14T00:06:01.766Z,5.40
2019-02-14T00:10:09.667Z,5.30
2019-02-14T00:14:18.208Z,5.27
2019-02-14T00:18:25.902Z,4.90
2019-02-14T00:22:34.037Z,5.33
2019-02-14T00:26:42.144Z,4.93
2019-02-14T00:30:49.955Z,5.23
2019-02-14T00:34:58.264Z,4.83
2019-02-14T00:39:07.216Z,5.30
2019-02-14T00:43:16.552Z,5.07
2019-02-14T00:47:24.707Z,6.27
2019-02-14T00:51:33.596Z,5.37
2019-02-14T00:55:41.322Z,5.70
2019-02-14T00:59:49.527Z,4.97
2019-02-14T01:03:57.661Z,5.73
2019-02-14T01:08:05.363Z,5.77
2019-02-14T01:12:14.189Z,5.20
2019-02-14T01:16:22.705Z,5.23
2019-02-14T01:20:30.415Z,5.07
2019-02-14T01:24:38.951Z,5.40
2019-02-14T01:28:46.755Z,6.00
2019-02-14T01:32:54.470Z,5.53
2019-02-14T01:37:02.384Z,5.40
2019-02-14T01:41:11.213Z,5.87
2019-02-14T01:45:19.352Z,5.30
2019-02-14T01:49:27.868Z,5.43
2019-02-14T01:53:35.566Z,4.90
2019-02-14T01:57:44.455Z,5.33
2019-02-14T02:01:52.307Z,5.47
2019-02-14T02:06:00.014Z,5.70
2019-02-14T02:10:08.883Z,5.00
2019-02-14T02:14:17.587Z,5.37
2019-02-14T02:18:25.483Z,5.87
2019-02-14T02:22:33.318Z,5.33
2019-02-14T02:26:41.374Z,5.10
2019-02-14T02:30:49.236Z,5.37
2019-02-14T02:34:57.549Z,5.43
2019-02-14T02:39:07.223Z,5.73
2019-02-14T02:43:14.903Z,5.50
2019-02-14T02:47:23.859Z,5.37
2019-02-14T02:51:31.770Z,5.43
2019-02-14T02:55:39.308Z,6.10
2019-02-14T02:59:47.408Z,5.50
2019-02-14T03:03:55.108Z,5.87
2019-02-14T03:08:02.941Z,5.60
2019-02-14T03:12:11.111Z,6.00
2019-02-14T03:16:18.812Z,7.73
2019-02-14T03:20:27.055Z,9.90
2019-02-14T03:24:35.189Z,18.20
2019-02-14T03:28:42.873Z,11.03
2019-02-14T03:32:51.304Z,7.43
2019-02-14T03:36:59.629Z,9.77
2019-02-14T03:41:07.437Z,7.40
2019-02-14T03:45:16.813Z,5.73
2019-02-14T03:49:24.632Z,16.97
2019-02-14T03:53:32.412Z,43.10
2019-02-14T03:57:40.329Z,10.47
2019-02-14T04:01:48.538Z,10.60
2019-02-14T04:05:56.447Z,11.40
2019-02-14T04:10:05.814Z,9.87
2019-02-14T04:14:13.386Z,18.80
2019-02-14T04:18:21.032Z,15.77
2019-02-14T04:22:29.132Z,34.10
2019-02-14T04:26:36.770Z,6.80
2019-02-14T04:30:44.880Z,6.23
2019-02-14T04:34:53.150Z,5.70
2019-02-14T04:39:00.976Z,5.90
2019-02-14T04:43:10.519Z,5.70
2019-02-14T04:47:18.825Z,5.53
2019-02-14T04:51:26.574Z,14.93
2019-02-14T04:55:34.784Z,16.50
2019-02-14T04:59:42.710Z,6.67
2019-02-14T05:03:50.595Z,6.20
2019-02-14T05:07:58.513Z,5.77
2019-02-14T05:12:06.283Z,5.77
2019-02-14T05:16:14.024Z,6.13
2019-02-14T05:20:22.138Z,6.33
2019-02-14T05:24:30.062Z,7.03
2019-02-14T05:28:37.855Z,6.43
2019-02-14T05:32:45.846Z,5.57
2019-02-14T05:36:55.309Z,7.00
2019-02-14T05:41:03.145Z,6.07
2019-02-14T05:45:11.578Z,7.37
2019-02-14T05:49:19.270Z,6.87
2019-02-14T05:53:26.828Z,6.77
2019-02-14T05:57:34.999Z,6.90
2019-02-14T06:01:42.500Z,6.33
2019-02-14T06:05:51.331Z,7.30
2019-02-14T06:09:59.370Z,5.90
2019-02-14T06:14:06.960Z,5.73
2019-02-14T06:18:14.776Z,7.67
2019-02-14T06:22:24.068Z,5.97
2019-02-14T06:26:31.810Z,6.03
2019-02-14T06:30:39.726Z,5.80
2019-02-14T06:34:47.532Z,6.40
2019-02-14T06:38:55.142Z,6.30
2019-02-14T06:43:03.455Z,6.23
2019-02-14T06:47:11.276Z,5.93
2019-02-14T06:51:18.894Z,7.57
2019-02-14T06:55:26.627Z,6.20
2019-02-14T06:59:36.139Z,5.33
2019-02-14T07:03:43.940Z,5.57
2019-02-14T07:07:52.958Z,5.60
2019-02-14T07:12:01.314Z,5.93
2019-02-14T07:16:09.684Z,6.70
2019-02-14T07:20:17.647Z,6.73
2019-02-14T07:24:25.351Z,5.97
2019-02-14T07:28:34.453Z,6.13
2019-02-14T07:32:43.238Z,5.97
2019-02-14T07:36:51.239Z,7.57
2019-02-14T07:40:59.758Z,9.20
2019-02-14T07:45:11.163Z,7.37
2019-02-14T07:49:19.881Z,5.27
2019-02-14T07:53:27.594Z,6.33
2019-02-14T07:57:35.544Z,5.97
2019-02-14T08:01:43.203Z,7.40
2019-02-14T08:05:51.062Z,5.70
2019-02-14T08:09:59.188Z,5.67
2019-02-14T08:14:07.890Z,6.77
2019-02-14T08:18:15.611Z,5.80
2019-02-14T08:22:23.387Z,5.63
2019-02-14T08:26:31.307Z,5.03
2019-02-14T08:30:39.016Z,5.30
2019-02-14T08:34:46.937Z,6.27
2019-02-14T08:38:55.129Z,6.43
2019-02-14T08:43:02.932Z,6.57
2019-02-14T08:47:10.666Z,6.90
2019-02-14T08:51:18.627Z,6.10
2019-02-14T08:55:26.378Z,6.03
2019-02-14T08:59:34.292Z,5.60
2019-02-14T09:03:42.403Z,5.37
2019-02-14T09:07:54.594Z,5.57
2019-02-14T09:12:00.565Z,5.63
2019-02-14T09:16:08.293Z,5.67
2019-02-14T09:20:16.530Z,5.70
2019-02-14T09:24:24.125Z,5.60
2019-02-14T09:28:31.832Z,5.03
2019-02-14T09:32:40.135Z,5.23
2019-02-14T09:36:47.778Z,5.40
2019-02-14T09:40:56.893Z,5.10
2019-02-14T09:45:05.651Z,5.10
2019-02-14T09:49:13.348Z,5.33
2019-02-14T09:53:21.158Z,5.77
2019-02-14T09:57:29.311Z,5.40
2019-02-14T10:01:37.065Z,6.60
2019-02-14T10:05:44.995Z,5.80
2019-02-14T10:09:53.212Z,7.17
2019-02-14T10:14:00.929Z,5.53
2019-02-14T10:18:08.628Z,5.60
2019-02-14T10:22:16.742Z,7.33
2019-02-14T10:26:24.439Z,5.40
2019-02-14T10:30:32.577Z,6.63
2019-02-14T10:34:40.295Z,5.70
2019-02-14T10:38:47.969Z,5.37
2019-02-14T10:42:55.806Z,5.80
2019-02-14T10:47:03.597Z,17.10
2019-02-14T10:51:11.915Z,6.33
2019-02-14T10:55:19.959Z,10.20
2019-02-14T10:59:27.475Z,7.40
2019-02-14T11:03:35.442Z,5.97
2019-02-14T11:07:43.664Z,7.27
2019-02-14T11:11:52.395Z,7.07
2019-02-14T11:16:00.215Z,6.07
2019-02-14T11:20:09.269Z,6.93
2019-02-14T11:24:16.867Z,5.80
2019-02-14T11:28:24.680Z,9.40
2019-02-14T11:32:32.496Z,7.27
2019-02-14T11:36:40.180Z,6.10
2019-02-14T11:40:48.318Z,5.27
2019-02-14T11:44:55.910Z,5.87
2019-02-14T11:49:03.509Z,5.70
2019-02-14T11:53:14.154Z,5.50
2019-02-14T11:57:22.680Z,6.47
2019-02-14T12:01:30.625Z,7.53
2019-02-14T12:05:38.645Z,5.47
2019-02-14T12:09:46.364Z,5.50
2019-02-14T12:13:54.718Z,5.67
2019-02-14T12:18:02.889Z,6.47
2019-02-14T12:22:10.501Z,5.37
2019-02-14T12:26:18.416Z,6.63
2019-02-14T12:30:26.743Z,7.83
2019-02-14T12:34:34.363Z,10.30
2019-02-14T12:38:42.268Z,6.07
2019-02-14T12:42:49.970Z,6.60
2019-02-14T12:46:57.667Z,5.37
2019-02-14T12:51:05.472Z,5.73
2019-02-14T12:55:13.170Z,5.97
2019-02-14T12:59:21.716Z,7.90
2019-02-14T13:03:29.936Z,6.37
2019-02-14T13:07:37.642Z,5.67
2019-02-14T13:11:45.469Z,9.53
2019-02-14T13:15:53.869Z,10.20
2019-02-14T13:20:01.289Z,8.97
2019-02-14T13:24:09.398Z,9.73
2019-02-14T13:28:17.296Z,9.83
2019-02-14T13:32:26.046Z,8.83
2019-02-14T13:36:34.251Z,8.77
2019-02-14T13:40:41.890Z,7.60
2019-02-14T13:44:49.714Z,7.13
2019-02-14T13:48:58.316Z,6.77
2019-02-14T13:53:06.010Z,6.90
2019-02-14T13:57:14.069Z,6.80
2019-02-14T14:01:22.757Z,7.07
2019-02-14T14:05:30.532Z,7.50
2019-02-14T14:09:39.070Z,7.43
2019-02-14T14:13:46.914Z,8.23
2019-02-14T14:17:54.720Z,8.07
2019-02-14T14:22:02.684Z,8.83
2019-02-14T14:26:10.837Z,9.50
2019-02-14T14:30:18.579Z,8.63
2019-02-14T14:34:26.697Z,11.03
2019-02-14T14:38:34.578Z,9.83
2019-02-14T14:43:04.072Z,11.53
2019-02-14T14:47:20.540Z,12.03
2019-02-14T14:51:30.013Z,8.97
2019-02-14T14:55:37.769Z,9.50
2019-02-14T14:59:45.697Z,8.73
2019-02-14T15:03:53.482Z,9.27
2019-02-14T15:08:01.828Z,11.17
2019-02-14T15:12:09.613Z,9.60
2019-02-14T15:16:17.425Z,9.40
2019-02-14T15:20:25.169Z,9.40
2019-02-14T15:24:33.067Z,8.93
2019-02-14T15:28:40.784Z,9.57
2019-02-14T15:32:48.668Z,10.43
2019-02-14T15:36:56.622Z,9.80
2019-02-14T15:41:05.308Z,10.13
2019-02-14T15:45:13.677Z,16.30
2019-02-14T15:49:23.060Z,11.53
2019-02-14T15:53:31.955Z,15.50
2019-02-14T15:57:42.246Z,34.23
2019-02-14T16:01:50.136Z,10.37
2019-02-14T16:05:57.950Z,13.50
2019-02-14T16:10:06.024Z,12.33
2019-02-14T16:14:13.732Z,10.27
2019-02-14T16:18:23.208Z,14.33
2019-02-14T16:22:31.997Z,13.63
2019-02-14T16:26:39.734Z,9.23
2019-02-14T16:30:47.711Z,8.73
2019-02-14T16:34:55.760Z,13.43
2019-02-14T16:39:05.042Z,10.77
2019-02-14T16:43:13.237Z,10.50
2019-02-14T16:47:21.536Z,15.20
2019-02-14T16:51:29.252Z,11.37
2019-02-14T16:55:37.386Z,17.80
2019-02-14T16:59:45.589Z,9.40
2019-02-14T17:03:53.187Z,11.47
2019-02-14T17:08:01.615Z,10.47
2019-02-14T17:12:09.937Z,12.27
2019-02-14T17:16:18.568Z,12.10
2019-02-14T17:20:26.831Z,9.90
2019-02-14T17:24:34.403Z,12.07
2019-02-14T17:28:42.725Z,12.60
2019-02-14T17:32:51.081Z,22.83
2019-02-14T17:36:58.846Z,20.33
2019-02-14T17:41:06.733Z,21.37
2019-02-14T17:45:15.082Z,11.17
2019-02-14T17:49:22.888Z,20.00
2019-02-14T17:53:30.817Z,14.03
2019-02-14T17:57:39.839Z,11.53
2019-02-14T18:01:47.544Z,11.47
2019-02-14T18:05:55.487Z,13.67
2019-02-14T18:10:03.887Z,11.43
2019-02-14T18:14:11.491Z,15.13
2019-02-14T18:18:19.422Z,13.07
2019-02-14T18:22:27.073Z,18.27
2019-02-14T18:26:36.674Z,18.20
2019-02-14T18:30:44.562Z,14.47
2019-02-14T18:34:52.308Z,14.37
2019-02-14T18:39:00.507Z,10.90
2019-02-14T18:43:09.821Z,11.37
2019-02-14T18:47:17.761Z,12.40
2019-02-14T18:51:25.367Z,11.87
2019-02-14T18:55:34.098Z,10.53
2019-02-14T18:59:42.122Z,11.93
2019-02-14T19:03:49.814Z,12.77
2019-02-14T19:07:58.500Z,11.03
2019-02-14T19:12:06.532Z,15.20
2019-02-14T19:16:14.781Z,12.00
2019-02-14T19:20:22.710Z,14.90
2019-02-14T19:24:30.457Z,16.20
2019-02-14T19:28:38.428Z,15.67
2019-02-14T19:32:46.231Z,12.60
2019-02-14T19:36:55.085Z,13.30
2019-02-14T19:41:03.504Z,13.87
2019-02-14T19:45:11.284Z,13.87
2019-02-14T19:49:19.440Z,16.43
2019-02-14T19:53:27.489Z,14.73
2019-02-14T19:57:35.161Z,15.87
2019-02-14T20:01:43.870Z,16.43
2019-02-14T20:05:53.318Z,17.13
2019-02-14T20:10:00.940Z,16.87
2019-02-14T20:14:08.831Z,19.00
2019-02-14T20:18:16.546Z,18.93
2019-02-14T20:22:25.424Z,15.07
2019-02-14T20:26:33.472Z,16.93
2019-02-14T20:30:42.729Z,13.23
2019-02-14T20:34:51.157Z,19.37
2019-02-14T20:38:58.971Z,14.47
2019-02-14T20:43:06.801Z,11.83
2019-02-14T20:47:14.688Z,11.07
2019-02-14T20:51:22.393Z,10.23
2019-02-14T20:55:30.718Z,10.53
2019-02-14T20:59:39.047Z,10.63
2019-02-14T21:03:47.071Z,14.73
2019-02-14T21:07:55.275Z,12.67
2019-02-14T21:12:03.581Z,16.23
2019-02-14T21:16:11.317Z,13.30
2019-02-14T21:20:19.135Z,10.53
2019-02-14T21:24:26.926Z,10.67
2019-02-14T21:28:34.668Z,12.20
2019-02-14T21:32:42.883Z,12.03
2019-02-14T21:36:51.533Z,10.27
2019-02-14T21:40:59.515Z,11.60
2019-02-14T21:45:08.919Z,12.63
2019-02-14T21:49:16.635Z,12.63
2019-02-14T21:53:24.447Z,14.10
2019-02-14T21:57:32.178Z,14.03
2019-02-14T22:01:39.992Z,14.47
2019-02-14T22:05:47.680Z,14.97
2019-02-14T22:09:55.286Z,15.07
2019-02-14T22:14:03.462Z,18.30
2019-02-14T22:18:12.723Z,15.50
2019-02-14T22:22:20.374Z,16.40
2019-02-14T22:26:29.080Z,14.40
2019-02-14T22:30:36.803Z,15.30
2019-02-14T22:34:44.608Z,14.07
2019-02-14T22:38:52.851Z,11.97
2019-02-14T22:43:00.742Z,13.47
2019-02-14T22:47:09.003Z,15.13
2019-02-14T22:51:16.766Z,13.53
2019-02-14T22:55:24.486Z,13.87
2019-02-14T22:59:32.297Z,12.30
2019-02-14T23:03:39.990Z,10.40
2019-02-14T23:07:47.613Z,10.97
2019-02-14T23:11:55.858Z,9.70
2019-02-14T23:16:03.931Z,10.47
2019-02-14T23:20:11.729Z,9.90
2019-02-14T23:24:19.691Z,11.37
2019-02-14T23:28:27.682Z,13.07
2019-02-14T23:32:36.604Z,11.67
2019-02-14T23:36:44.857Z,14.43
2019-02-14T23:40:52.733Z,12.80
2019-02-14T23:45:00.541Z,12.60
2019-02-14T23:49:08.777Z,12.87
2019-02-14T23:53:16.399Z,13.07
2019-02-14T23:57:24.376Z,14.20
